Altus Air Force Base
KLTS : now visible

Airfield :











YOU CAN JOIN US ON...

 
LOGIN :

Register | Disclaimer

   EN    FR    IT 

 









Legend :    VFR   Marginal VFR   IFR   Intensive IFR   Very Intensive IFR
Visi :
Ceiling :
>= 8 km
>= 3000ft
5 to 8 km
1000 to 3000 ft
1500m to 5 km
500 to 1000 ft
800 to 1500m
200 to 500 ft
< 800m
< 200 ft
Symbols :   Thunderstorms  Fog  Heavy snow  Heavy precipitations  Wind > 20 kt







- Airport Elevation : 1382 ft


KLTS - Altus Air Force Base

CURRENT METAR :
  • 190956Z 12010KT 10SM CLR 24/19 A2988 RMK AO2A SLP099 T02410194 $

EXPIRED METARs :
  • 190856Z 13004KT 10SM CLR 24/20 A2987 RMK AO2A SLP096 T02430198 56006 $
  • 190756Z 15006KT 10SM CLR 25/20 A2987 RMK AO2A SLP096 T02490199 $

TAF TAF KLTS
Valid from the 19 at 09:00 until the 20 at 15:00 UTC


190900Z 1909/2015 14006KT 9999 SKC QNH2987INS
BECMG 1914/1915 18010G15KT 9999 FEW140 QNH2990INS
BECMG 1923/1924 15015KT 9999 SKC QNH2989INS TX40/1921Z TN23/1912Z
No reported NOTAMs for that airfield.



MET'MAP, your aeronautical weather chart ! - Copyright ORBIFLY December 2007 - Disclaimer

ORBIFLY MET'MAP TEAM :

Programming & Development : Alexandra Zaïnal
Concept & Development : Baudouin d'Aumeries
Co-Development & Prog : Marc-Olivier Méhu
Technical & hardware support : Manuel Goepfert

Contact : metmap@orbifly.com




SOURCES & CREDITS :

   NOAA       Earth
Advisory